St Paul Downtown Holman Field
KSTP : now visible

Airfield :











YOU CAN JOIN US ON...

 
LOGIN :

Register | Disclaimer

   EN    FR    IT 

 









Legend :    VFR   Marginal VFR   IFR   Intensive IFR   Very Intensive IFR
Visi :
Ceiling :
>= 8 km
>= 3000ft
5 to 8 km
1000 to 3000 ft
1500m to 5 km
500 to 1000 ft
800 to 1500m
200 to 500 ft
< 800m
< 200 ft
Symbols :   Thunderstorms  Fog  Heavy snow  Heavy precipitations  Wind > 20 kt






- Airport Elevation : 705 ft
- IATA code : STP


KSTP - St Paul Downtown Holman Field

CURRENT METAR :
  • 270036Z AUTO 31008KT 4SM TSRA FEW043 BKN080 OVC100 23/18 A2979 RMK AO2 LTG DSNT N-SE TSB30 P0004 T02280183

EXPIRED METARs :
  • 270000Z AUTO 32007KT 3SM -RA SCT042 BKN065 OVC110 23/19 A2978 RMK AO2 LTG DSNT NE-S P0001 T02330194
  • 262353Z AUTO 36006KT 1 3/4SM +RA FEW036 BKN044 OVC090 23/19 A2979 RMK AO2 LTG DSNT ALQDS RAB30 SLP081 P0010 60010 T02330189 10289 20233 53004
  • 262253Z AUTO 33013G16KT 10SM FEW048 BKN090 OVC110 28/19 A2976 RMK AO2 LTG DSNT NE AND E SLP072 T02780189
  • 262153Z AUTO 28005KT 10SM SCT047 SCT060 28/19 A2977 RMK AO2 SLP076 T02830189

Expired Forecast.
KZMP FIR / North America



MET'MAP, your aeronautical weather chart ! - Copyright ORBIFLY December 2007 - Disclaimer

ORBIFLY MET'MAP TEAM :

Programming & Development : Alexandra Zaïnal
Concept & original design : Baudouin d'Aumeries
Assistance for programming : Marc-Olivier Méhu
Technical & hardware support : Manuel Goepfert

Contact : metmap@orbifly.com




SOURCES & CREDITS :

   NOAA       Earth
Advisory